sensor_id;sensor_type;location;lat;lon;timestamp;temperature;humidity
31735;DHT22;18313;48.518;9.124;2022-11-15T00:00:36;7.10;99.90
31735;DHT22;18313;48.518;9.124;2022-11-15T00:03:26;7.20;99.90
31735;DHT22;18313;48.518;9.124;2022-11-15T00:06:11;7.30;99.90
31735;DHT22;18313;48.518;9.124;2022-11-15T00:09:00;7.20;99.90
31735;DHT22;18313;48.518;9.124;2022-11-15T00:11:46;7.20;99.90
31735;DHT22;18313;48.518;9.124;2022-11-15T00:14:32;7.00;99.90
31735;DHT22;18313;48.518;9.124;2022-11-15T00:17:17;7.10;99.90
31735;DHT22;18313;48.518;9.124;2022-11-15T00:20:03;7.00;99.90
31735;DHT22;18313;48.518;9.124;2022-11-15T00:22:49;7.10;99.90
31735;DHT22;18313;48.518;9.124;2022-11-15T00:25:34;7.00;99.90
31735;DHT22;18313;48.518;9.124;2022-11-15T00:28:20;7.20;99.90
31735;DHT22;18313;48.518;9.124;2022-11-15T00:31:08;7.20;99.90
31735;DHT22;18313;48.518;9.124;2022-11-15T00:33:53;7.10;99.90
31735;DHT22;18313;48.518;9.124;2022-11-15T00:36:39;7.00;99.90
31735;DHT22;18313;48.518;9.124;2022-11-15T00:39:25;7.00;99.90
31735;DHT22;18313;48.518;9.124;2022-11-15T00:42:11;6.90;99.90
31735;DHT22;18313;48.518;9.124;2022-11-15T00:44:56;6.90;99.90
31735;DHT22;18313;48.518;9.124;2022-11-15T00:47:44;6.90;99.90
31735;DHT22;18313;48.518;9.124;2022-11-15T00:50:30;6.80;99.90
31735;DHT22;18313;48.518;9.124;2022-11-15T00:53:16;6.70;99.90
31735;DHT22;18313;48.518;9.124;2022-11-15T00:56:02;6.70;99.90
31735;DHT22;18313;48.518;9.124;2022-11-15T00:58:47;6.60;99.90
31735;DHT22;18313;48.518;9.124;2022-11-15T01:01:32;6.50;99.90
31735;DHT22;18313;48.518;9.124;2022-11-15T01:04:18;6.40;99.90
31735;DHT22;18313;48.518;9.124;2022-11-15T01:07:03;6.30;99.90
31735;DHT22;18313;48.518;9.124;2022-11-15T01:09:49;6.20;99.90
31735;DHT22;18313;48.518;9.124;2022-11-15T01:12:34;6.20;99.90
31735;DHT22;18313;48.518;9.124;2022-11-15T01:15:20;6.30;99.90
31735;DHT22;18313;48.518;9.124;2022-11-15T01:18:06;6.30;99.90
31735;DHT22;18313;48.518;9.124;2022-11-15T01:20:51;6.30;99.90
31735;DHT22;18313;48.518;9.124;2022-11-15T01:23:37;6.30;99.90
31735;DHT22;18313;48.518;9.124;2022-11-15T01:26:24;6.30;99.90
31735;DHT22;18313;48.518;9.124;2022-11-15T01:29:09;6.20;99.90
31735;DHT22;18313;48.518;9.124;2022-11-15T01:31:55;6.20;99.90
31735;DHT22;18313;48.518;9.124;2022-11-15T01:34:40;6.20;99.90
31735;DHT22;18313;48.518;9.124;2022-11-15T01:37:26;6.20;99.90
31735;DHT22;18313;48.518;9.124;2022-11-15T01:40:11;6.20;99.90
31735;DHT22;18313;48.518;9.124;2022-11-15T01:42:57;6.20;99.90
31735;DHT22;18313;48.518;9.124;2022-11-15T01:45:56;6.30;99.90
31735;DHT22;18313;48.518;9.124;2022-11-15T01:48:41;6.30;99.90
31735;DHT22;18313;48.518;9.124;2022-11-15T01:51:29;6.20;99.90
31735;DHT22;18313;48.518;9.124;2022-11-15T01:54:18;6.20;99.90
31735;DHT22;18313;48.518;9.124;2022-11-15T01:57:09;6.10;99.90
31735;DHT22;18313;48.518;9.124;2022-11-15T01:59:56;6.10;99.90
31735;DHT22;18313;48.518;9.124;2022-11-15T02:02:42;6.10;99.90
31735;DHT22;18313;48.518;9.124;2022-11-15T02:05:30;6.10;99.90
31735;DHT22;18313;48.518;9.124;2022-11-15T02:08:15;6.20;99.90
31735;DHT22;18313;48.518;9.124;2022-11-15T02:11:09;6.20;99.90
31735;DHT22;18313;48.518;9.124;2022-11-15T02:13:55;6.20;99.90
31735;DHT22;18313;48.518;9.124;2022-11-15T02:29:03;5.90;99.90
31735;DHT22;18313;48.518;9.124;2022-11-15T02:38:02;5.80;99.90
31735;DHT22;18313;48.518;9.124;2022-11-15T02:40:58;5.90;99.90
31735;DHT22;18313;48.518;9.124;2022-11-15T02:43:59;5.80;99.90
31735;DHT22;18313;48.518;9.124;2022-11-15T02:46:58;5.70;99.90
31735;DHT22;18313;48.518;9.124;2022-11-15T02:50:08;5.60;99.90
31735;DHT22;18313;48.518;9.124;2022-11-15T02:52:54;5.60;99.90
31735;DHT22;18313;48.518;9.124;2022-11-15T02:55:47;5.70;99.90
31735;DHT22;18313;48.518;9.124;2022-11-15T03:01:46;5.70;99.90
31735;DHT22;18313;48.518;9.124;2022-11-15T03:07:37;5.60;99.90
31735;DHT22;18313;48.518;9.124;2022-11-15T03:13:49;5.70;99.90
31735;DHT22;18313;48.518;9.124;2022-11-15T03:19:44;5.60;99.90
31735;DHT22;18313;48.518;9.124;2022-11-15T03:22:35;5.60;99.90
31735;DHT22;18313;48.518;9.124;2022-11-15T03:25:24;5.60;99.90
31735;DHT22;18313;48.518;9.124;2022-11-15T03:28:20;5.60;99.90
31735;DHT22;18313;48.518;9.124;2022-11-15T03:31:09;5.60;99.90
31735;DHT22;18313;48.518;9.124;2022-11-15T03:37:21;5.70;99.90
31735;DHT22;18313;48.518;9.124;2022-11-15T03:40:08;5.70;99.90
31735;DHT22;18313;48.518;9.124;2022-11-15T03:43:51;5.70;99.90
31735;DHT22;18313;48.518;9.124;2022-11-15T03:46:33;5.70;99.90
31735;DHT22;18313;48.518;9.124;2022-11-15T03:49:27;5.70;99.90
31735;DHT22;18313;48.518;9.124;2022-11-15T03:52:17;5.70;99.90
31735;DHT22;18313;48.518;9.124;2022-11-15T03:55:05;5.80;99.90
31735;DHT22;18313;48.518;9.124;2022-11-15T03:57:54;5.70;99.90
31735;DHT22;18313;48.518;9.124;2022-11-15T04:00:41;5.70;99.90
31735;DHT22;18313;48.518;9.124;2022-11-15T04:03:27;5.80;99.90
31735;DHT22;18313;48.518;9.124;2022-11-15T04:06:13;5.70;99.90
31735;DHT22;18313;48.518;9.124;2022-11-15T04:08:58;5.80;99.90
31735;DHT22;18313;48.518;9.124;2022-11-15T04:11:44;5.70;99.90
31735;DHT22;18313;48.518;9.124;2022-11-15T04:14:30;5.70;99.90
31735;DHT22;18313;48.518;9.124;2022-11-15T04:17:15;5.60;99.90
31735;DHT22;18313;48.518;9.124;2022-11-15T04:20:01;5.60;99.90
31735;DHT22;18313;48.518;9.124;2022-11-15T04:23:18;5.60;99.90
31735;DHT22;18313;48.518;9.124;2022-11-15T04:26:23;5.60;99.90
31735;DHT22;18313;48.518;9.124;2022-11-15T04:29:09;5.70;99.90
31735;DHT22;18313;48.518;9.124;2022-11-15T04:32:12;5.70;99.90
31735;DHT22;18313;48.518;9.124;2022-11-15T04:34:58;5.70;99.90
31735;DHT22;18313;48.518;9.124;2022-11-15T04:37:44;5.70;99.90
31735;DHT22;18313;48.518;9.124;2022-11-15T04:40:34;5.70;99.90
31735;DHT22;18313;48.518;9.124;2022-11-15T04:43:20;5.70;99.90
31735;DHT22;18313;48.518;9.124;2022-11-15T04:46:05;5.70;99.90
31735;DHT22;18313;48.518;9.124;2022-11-15T04:48:52;5.60;99.90
31735;DHT22;18313;48.518;9.124;2022-11-15T04:51:43;5.60;99.90
31735;DHT22;18313;48.518;9.124;2022-11-15T04:54:28;5.60;99.90
31735;DHT22;18313;48.518;9.124;2022-11-15T04:57:14;5.60;99.90
31735;DHT22;18313;48.518;9.124;2022-11-15T05:00:00;5.50;99.90
31735;DHT22;18313;48.518;9.124;2022-11-15T05:02:45;5.60;99.90
31735;DHT22;18313;48.518;9.124;2022-11-15T05:05:49;5.60;99.90
31735;DHT22;18313;48.518;9.124;2022-11-15T05:08:35;5.50;99.90
31735;DHT22;18313;48.518;9.124;2022-11-15T05:11:21;5.60;99.90
31735;DHT22;18313;48.518;9.124;2022-11-15T05:14:06;5.50;99.90
31735;DHT22;18313;48.518;9.124;2022-11-15T05:16:52;5.60;99.90
31735;DHT22;18313;48.518;9.124;2022-11-15T05:19:37;5.60;99.90
31735;DHT22;18313;48.518;9.124;2022-11-15T05:22:23;5.60;99.90
31735;DHT22;18313;48.518;9.124;2022-11-15T05:25:09;5.60;99.90
31735;DHT22;18313;48.518;9.124;2022-11-15T05:27:55;5.70;99.90
31735;DHT22;18313;48.518;9.124;2022-11-15T05:30:40;5.70;99.90
31735;DHT22;18313;48.518;9.124;2022-11-15T05:33:26;5.60;99.90
31735;DHT22;18313;48.518;9.124;2022-11-15T05:36:20;5.60;99.90
31735;DHT22;18313;48.518;9.124;2022-11-15T05:39:07;5.60;99.90
31735;DHT22;18313;48.518;9.124;2022-11-15T05:42:14;5.60;99.90
31735;DHT22;18313;48.518;9.124;2022-11-15T05:45:02;5.70;99.90
31735;DHT22;18313;48.518;9.124;2022-11-15T05:47:50;5.70;99.90
31735;DHT22;18313;48.518;9.124;2022-11-15T05:50:38;5.70;99.90
31735;DHT22;18313;48.518;9.124;2022-11-15T05:53:25;5.70;99.90
31735;DHT22;18313;48.518;9.124;2022-11-15T05:56:11;5.90;99.90
31735;DHT22;18313;48.518;9.124;2022-11-15T05:58:57;5.90;99.90
31735;DHT22;18313;48.518;9.124;2022-11-15T06:01:44;5.80;99.90
31735;DHT22;18313;48.518;9.124;2022-11-15T06:04:30;5.60;99.90
31735;DHT22;18313;48.518;9.124;2022-11-15T06:07:15;5.70;99.90
31735;DHT22;18313;48.518;9.124;2022-11-15T06:10:01;5.60;99.90
31735;DHT22;18313;48.518;9.124;2022-11-15T06:12:58;5.70;99.90
31735;DHT22;18313;48.518;9.124;2022-11-15T06:15:44;5.60;99.90
31735;DHT22;18313;48.518;9.124;2022-11-15T06:18:33;5.60;99.90
31735;DHT22;18313;48.518;9.124;2022-11-15T06:21:18;5.60;99.90
31735;DHT22;18313;48.518;9.124;2022-11-15T06:24:05;5.60;99.90
31735;DHT22;18313;48.518;9.124;2022-11-15T06:26:51;5.60;99.90
31735;DHT22;18313;48.518;9.124;2022-11-15T06:29:37;5.50;99.90
31735;DHT22;18313;48.518;9.124;2022-11-15T06:32:22;5.50;99.90
31735;DHT22;18313;48.518;9.124;2022-11-15T06:35:08;5.40;99.90
31735;DHT22;18313;48.518;9.124;2022-11-15T06:37:53;5.30;99.90
31735;DHT22;18313;48.518;9.124;2022-11-15T06:40:39;5.50;99.90
31735;DHT22;18313;48.518;9.124;2022-11-15T06:43:24;5.40;99.90
31735;DHT22;18313;48.518;9.124;2022-11-15T06:46:10;5.40;99.90
31735;DHT22;18313;48.518;9.124;2022-11-15T06:48:55;5.50;99.90
31735;DHT22;18313;48.518;9.124;2022-11-15T06:51:41;5.50;99.90
31735;DHT22;18313;48.518;9.124;2022-11-15T06:54:26;5.50;99.90
31735;DHT22;18313;48.518;9.124;2022-11-15T06:57:12;5.50;99.90
31735;DHT22;18313;48.518;9.124;2022-11-15T06:59:57;5.60;99.90
31735;DHT22;18313;48.518;9.124;2022-11-15T07:02:43;5.60;99.90
31735;DHT22;18313;48.518;9.124;2022-11-15T07:05:28;5.60;99.90
31735;DHT22;18313;48.518;9.124;2022-11-15T07:08:14;5.70;99.90
31735;DHT22;18313;48.518;9.124;2022-11-15T07:11:01;5.80;99.90
31735;DHT22;18313;48.518;9.124;2022-11-15T07:13:47;6.00;99.90
31735;DHT22;18313;48.518;9.124;2022-11-15T07:16:33;6.30;99.90
31735;DHT22;18313;48.518;9.124;2022-11-15T07:19:18;6.30;99.90
31735;DHT22;18313;48.518;9.124;2022-11-15T07:22:04;6.40;99.90
31735;DHT22;18313;48.518;9.124;2022-11-15T07:24:49;6.40;99.90
31735;DHT22;18313;48.518;9.124;2022-11-15T07:27:35;6.50;99.90
31735;DHT22;18313;48.518;9.124;2022-11-15T07:30:21;6.60;99.90
31735;DHT22;18313;48.518;9.124;2022-11-15T07:33:06;6.60;99.90
31735;DHT22;18313;48.518;9.124;2022-11-15T07:35:52;6.70;99.90
31735;DHT22;18313;48.518;9.124;2022-11-15T07:38:37;6.80;99.90
31735;DHT22;18313;48.518;9.124;2022-11-15T07:41:27;6.80;99.90
31735;DHT22;18313;48.518;9.124;2022-11-15T07:44:12;7.00;99.90
31735;DHT22;18313;48.518;9.124;2022-11-15T07:46:58;7.20;99.90
31735;DHT22;18313;48.518;9.124;2022-11-15T07:49:44;7.30;99.90
31735;DHT22;18313;48.518;9.124;2022-11-15T07:52:31;7.40;99.90
31735;DHT22;18313;48.518;9.124;2022-11-15T07:55:16;7.50;99.90
31735;DHT22;18313;48.518;9.124;2022-11-15T07:58:03;7.60;99.90
31735;DHT22;18313;48.518;9.124;2022-11-15T08:00:48;7.70;99.90
31735;DHT22;18313;48.518;9.124;2022-11-15T08:03:34;7.70;99.90
31735;DHT22;18313;48.518;9.124;2022-11-15T08:06:20;7.80;99.90
31735;DHT22;18313;48.518;9.124;2022-11-15T08:09:06;7.90;99.90
31735;DHT22;18313;48.518;9.124;2022-11-15T08:11:51;8.10;99.90
31735;DHT22;18313;48.518;9.124;2022-11-15T08:14:36;8.10;99.90
31735;DHT22;18313;48.518;9.124;2022-11-15T08:17:23;8.10;99.90
31735;DHT22;18313;48.518;9.124;2022-11-15T08:20:09;8.20;99.90
31735;DHT22;18313;48.518;9.124;2022-11-15T08:23:03;8.20;99.90
31735;DHT22;18313;48.518;9.124;2022-11-15T08:25:49;8.20;99.90
31735;DHT22;18313;48.518;9.124;2022-11-15T08:28:35;8.30;99.90
31735;DHT22;18313;48.518;9.124;2022-11-15T08:31:21;8.30;99.90
31735;DHT22;18313;48.518;9.124;2022-11-15T08:34:06;8.40;99.90
31735;DHT22;18313;48.518;9.124;2022-11-15T08:36:52;8.70;99.90
31735;DHT22;18313;48.518;9.124;2022-11-15T08:39:37;8.80;99.90
31735;DHT22;18313;48.518;9.124;2022-11-15T08:42:22;8.90;99.90
31735;DHT22;18313;48.518;9.124;2022-11-15T08:45:08;9.00;99.90
31735;DHT22;18313;48.518;9.124;2022-11-15T08:47:54;9.10;99.90
31735;DHT22;18313;48.518;9.124;2022-11-15T08:50:40;9.20;99.90
31735;DHT22;18313;48.518;9.124;2022-11-15T08:53:25;9.20;99.90
31735;DHT22;18313;48.518;9.124;2022-11-15T08:56:12;9.30;99.90
31735;DHT22;18313;48.518;9.124;2022-11-15T08:58:58;9.30;99.90
31735;DHT22;18313;48.518;9.124;2022-11-15T09:01:43;9.30;99.90
31735;DHT22;18313;48.518;9.124;2022-11-15T09:04:30;9.30;99.90
31735;DHT22;18313;48.518;9.124;2022-11-15T09:07:15;9.30;99.90
31735;DHT22;18313;48.518;9.124;2022-11-15T09:10:01;9.40;99.90
31735;DHT22;18313;48.518;9.124;2022-11-15T09:12:47;9.50;99.90
31735;DHT22;18313;48.518;9.124;2022-11-15T09:15:33;9.60;99.90
31735;DHT22;18313;48.518;9.124;2022-11-15T09:18:19;9.80;99.90
31735;DHT22;18313;48.518;9.124;2022-11-15T09:21:07;9.80;99.90
31735;DHT22;18313;48.518;9.124;2022-11-15T09:23:52;9.80;99.90
31735;DHT22;18313;48.518;9.124;2022-11-15T09:26:38;9.80;99.90
31735;DHT22;18313;48.518;9.124;2022-11-15T09:29:24;9.80;99.90
31735;DHT22;18313;48.518;9.124;2022-11-15T09:32:09;9.80;99.90
31735;DHT22;18313;48.518;9.124;2022-11-15T09:34:55;9.90;99.90
31735;DHT22;18313;48.518;9.124;2022-11-15T09:37:40;10.00;99.90
31735;DHT22;18313;48.518;9.124;2022-11-15T09:40:26;9.90;99.90
31735;DHT22;18313;48.518;9.124;2022-11-15T09:46:35;10.00;99.90
31735;DHT22;18313;48.518;9.124;2022-11-15T09:49:22;10.10;99.90
31735;DHT22;18313;48.518;9.124;2022-11-15T09:52:10;10.10;99.90
31735;DHT22;18313;48.518;9.124;2022-11-15T09:54:55;10.20;99.90
31735;DHT22;18313;48.518;9.124;2022-11-15T09:57:50;10.30;99.90
31735;DHT22;18313;48.518;9.124;2022-11-15T10:00:44;10.20;99.90
31735;DHT22;18313;48.518;9.124;2022-11-15T10:03:35;10.30;99.90
31735;DHT22;18313;48.518;9.124;2022-11-15T10:06:25;10.40;99.90
31735;DHT22;18313;48.518;9.124;2022-11-15T10:09:15;10.50;99.90
31735;DHT22;18313;48.518;9.124;2022-11-15T10:12:08;10.60;99.90
31735;DHT22;18313;48.518;9.124;2022-11-15T10:15:16;10.80;99.90
31735;DHT22;18313;48.518;9.124;2022-11-15T10:18:29;10.90;99.90
31735;DHT22;18313;48.518;9.124;2022-11-15T10:24:39;11.10;99.90
31735;DHT22;18313;48.518;9.124;2022-11-15T10:27:25;11.10;99.90
31735;DHT22;18313;48.518;9.124;2022-11-15T10:30:14;11.10;99.90
31735;DHT22;18313;48.518;9.124;2022-11-15T10:36:14;11.30;99.90
31735;DHT22;18313;48.518;9.124;2022-11-15T10:39:00;11.30;99.90
31735;DHT22;18313;48.518;9.124;2022-11-15T10:41:47;11.40;99.90
31735;DHT22;18313;48.518;9.124;2022-11-15T10:44:42;11.40;99.90
31735;DHT22;18313;48.518;9.124;2022-11-15T10:47:30;11.50;99.90
31735;DHT22;18313;48.518;9.124;2022-11-15T10:50:30;11.50;99.90
31735;DHT22;18313;48.518;9.124;2022-11-15T10:53:33;11.80;99.90
31735;DHT22;18313;48.518;9.124;2022-11-15T10:56:23;11.90;99.90
31735;DHT22;18313;48.518;9.124;2022-11-15T10:59:15;11.90;99.90
31735;DHT22;18313;48.518;9.124;2022-11-15T11:02:02;12.00;99.90
31735;DHT22;18313;48.518;9.124;2022-11-15T11:04:51;12.00;99.90
31735;DHT22;18313;48.518;9.124;2022-11-15T11:07:36;12.10;99.90
31735;DHT22;18313;48.518;9.124;2022-11-15T11:10:22;12.00;99.90
31735;DHT22;18313;48.518;9.124;2022-11-15T11:13:36;12.00;99.90
31735;DHT22;18313;48.518;9.124;2022-11-15T11:16:33;12.10;99.90
31735;DHT22;18313;48.518;9.124;2022-11-15T11:22:34;12.30;99.90
31735;DHT22;18313;48.518;9.124;2022-11-15T11:31:29;12.40;99.90
31735;DHT22;18313;48.518;9.124;2022-11-15T11:37:52;12.70;99.90
31735;DHT22;18313;48.518;9.124;2022-11-15T11:44:16;12.90;99.90
31735;DHT22;18313;48.518;9.124;2022-11-15T11:47:07;12.90;99.90
31735;DHT22;18313;48.518;9.124;2022-11-15T11:49:59;13.10;99.90
31735;DHT22;18313;48.518;9.124;2022-11-15T11:53:12;13.20;99.90
31735;DHT22;18313;48.518;9.124;2022-11-15T11:56:07;13.20;99.90
31735;DHT22;18313;48.518;9.124;2022-11-15T11:59:00;13.20;99.90
31735;DHT22;18313;48.518;9.124;2022-11-15T12:01:47;13.20;99.90
31735;DHT22;18313;48.518;9.124;2022-11-15T12:04:38;13.20;99.90
31735;DHT22;18313;48.518;9.124;2022-11-15T12:07:29;13.30;99.90
31735;DHT22;18313;48.518;9.124;2022-11-15T12:10:23;13.30;99.90
31735;DHT22;18313;48.518;9.124;2022-11-15T12:13:16;13.20;99.90
31735;DHT22;18313;48.518;9.124;2022-11-15T12:16:35;13.30;99.90
31735;DHT22;18313;48.518;9.124;2022-11-15T12:19:23;13.30;99.90
31735;DHT22;18313;48.518;9.124;2022-11-15T12:22:32;13.40;99.90
31735;DHT22;18313;48.518;9.124;2022-11-15T12:25:29;13.40;99.90
31735;DHT22;18313;48.518;9.124;2022-11-15T12:40:37;13.20;99.90
31735;DHT22;18313;48.518;9.124;2022-11-15T12:43:39;13.20;99.90
31735;DHT22;18313;48.518;9.124;2022-11-15T12:52:09;13.50;99.90
31735;DHT22;18313;48.518;9.124;2022-11-15T12:54:57;13.60;99.90
31735;DHT22;18313;48.518;9.124;2022-11-15T12:57:43;13.60;99.90
31735;DHT22;18313;48.518;9.124;2022-11-15T13:03:21;13.80;99.90
31735;DHT22;18313;48.518;9.124;2022-11-15T13:06:10;13.80;99.90
31735;DHT22;18313;48.518;9.124;2022-11-15T13:17:58;13.60;99.90
31735;DHT22;18313;48.518;9.124;2022-11-15T13:21:18;13.60;99.90
31735;DHT22;18313;48.518;9.124;2022-11-15T13:24:23;13.60;99.90
31735;DHT22;18313;48.518;9.124;2022-11-15T13:27:15;13.60;99.90
31735;DHT22;18313;48.518;9.124;2022-11-15T13:30:04;13.60;99.90
31735;DHT22;18313;48.518;9.124;2022-11-15T13:32:50;13.70;99.90
31735;DHT22;18313;48.518;9.124;2022-11-15T13:35:39;13.80;99.90
31735;DHT22;18313;48.518;9.124;2022-11-15T13:38:26;13.80;99.90
31735;DHT22;18313;48.518;9.124;2022-11-15T13:41:21;13.70;99.90
31735;DHT22;18313;48.518;9.124;2022-11-15T13:44:20;13.60;99.90
31735;DHT22;18313;48.518;9.124;2022-11-15T13:47:13;13.60;99.90
31735;DHT22;18313;48.518;9.124;2022-11-15T13:49:59;13.60;99.90
31735;DHT22;18313;48.518;9.124;2022-11-15T13:52:47;13.70;99.90
31735;DHT22;18313;48.518;9.124;2022-11-15T13:55:34;13.60;99.90
31735;DHT22;18313;48.518;9.124;2022-11-15T13:58:19;13.70;99.90
31735;DHT22;18313;48.518;9.124;2022-11-15T14:01:14;13.70;99.90
31735;DHT22;18313;48.518;9.124;2022-11-15T14:04:01;13.70;99.90
31735;DHT22;18313;48.518;9.124;2022-11-15T14:06:52;13.60;99.90
31735;DHT22;18313;48.518;9.124;2022-11-15T14:09:40;13.50;99.90
31735;DHT22;18313;48.518;9.124;2022-11-15T14:12:32;13.30;99.90
31735;DHT22;18313;48.518;9.124;2022-11-15T14:15:36;13.20;99.90
31735;DHT22;18313;48.518;9.124;2022-11-15T14:18:45;13.30;99.90
31735;DHT22;18313;48.518;9.124;2022-11-15T14:21:31;13.40;99.90
31735;DHT22;18313;48.518;9.124;2022-11-15T14:24:18;13.30;99.90
31735;DHT22;18313;48.518;9.124;2022-11-15T14:30:16;12.90;99.90
31735;DHT22;18313;48.518;9.124;2022-11-15T14:33:21;12.90;99.90
31735;DHT22;18313;48.518;9.124;2022-11-15T14:36:11;12.90;99.90
31735;DHT22;18313;48.518;9.124;2022-11-15T14:38:57;12.90;99.90
31735;DHT22;18313;48.518;9.124;2022-11-15T14:41:43;12.80;99.90
31735;DHT22;18313;48.518;9.124;2022-11-15T14:44:29;12.80;99.90
31735;DHT22;18313;48.518;9.124;2022-11-15T14:47:15;12.70;99.90
31735;DHT22;18313;48.518;9.124;2022-11-15T14:50:00;12.70;99.90
31735;DHT22;18313;48.518;9.124;2022-11-15T14:52:45;12.70;99.90
31735;DHT22;18313;48.518;9.124;2022-11-15T14:55:33;12.60;99.90
31735;DHT22;18313;48.518;9.124;2022-11-15T14:58:21;12.70;99.90
31735;DHT22;18313;48.518;9.124;2022-11-15T15:01:26;12.70;99.90
31735;DHT22;18313;48.518;9.124;2022-11-15T15:04:11;12.60;99.90
31735;DHT22;18313;48.518;9.124;2022-11-15T15:06:56;12.60;99.90
31735;DHT22;18313;48.518;9.124;2022-11-15T15:09:42;12.60;99.90
31735;DHT22;18313;48.518;9.124;2022-11-15T15:12:28;12.40;99.90
31735;DHT22;18313;48.518;9.124;2022-11-15T15:15:16;12.30;99.90
31735;DHT22;18313;48.518;9.124;2022-11-15T15:18:04;12.20;99.90
31735;DHT22;18313;48.518;9.124;2022-11-15T15:20:58;12.20;99.90
31735;DHT22;18313;48.518;9.124;2022-11-15T15:23:48;12.20;99.90
31735;DHT22;18313;48.518;9.124;2022-11-15T15:26:33;12.00;99.90
31735;DHT22;18313;48.518;9.124;2022-11-15T15:29:22;12.00;99.90
31735;DHT22;18313;48.518;9.124;2022-11-15T15:32:08;11.90;99.90
31735;DHT22;18313;48.518;9.124;2022-11-15T15:34:54;11.80;99.90
31735;DHT22;18313;48.518;9.124;2022-11-15T15:37:40;11.80;99.90
31735;DHT22;18313;48.518;9.124;2022-11-15T15:40:29;11.80;99.90
31735;DHT22;18313;48.518;9.124;2022-11-15T15:43:14;11.90;99.90
31735;DHT22;18313;48.518;9.124;2022-11-15T15:46:00;11.90;99.90
31735;DHT22;18313;48.518;9.124;2022-11-15T15:48:46;11.80;99.90
31735;DHT22;18313;48.518;9.124;2022-11-15T15:51:32;11.70;99.90
31735;DHT22;18313;48.518;9.124;2022-11-15T15:54:17;11.60;99.90
31735;DHT22;18313;48.518;9.124;2022-11-15T15:57:03;11.60;99.90
31735;DHT22;18313;48.518;9.124;2022-11-15T15:59:49;11.70;99.90
31735;DHT22;18313;48.518;9.124;2022-11-15T16:02:35;11.60;99.90
31735;DHT22;18313;48.518;9.124;2022-11-15T16:05:24;11.60;99.90
31735;DHT22;18313;48.518;9.124;2022-11-15T16:08:24;11.70;99.90
31735;DHT22;18313;48.518;9.124;2022-11-15T16:11:11;11.70;99.90
31735;DHT22;18313;48.518;9.124;2022-11-15T16:13:56;11.70;99.90
31735;DHT22;18313;48.518;9.124;2022-11-15T16:16:42;11.70;99.90
31735;DHT22;18313;48.518;9.124;2022-11-15T16:19:28;11.70;99.90
31735;DHT22;18313;48.518;9.124;2022-11-15T16:22:14;11.60;99.90
31735;DHT22;18313;48.518;9.124;2022-11-15T16:24:59;11.50;99.90
31735;DHT22;18313;48.518;9.124;2022-11-15T16:27:45;11.50;99.90
31735;DHT22;18313;48.518;9.124;2022-11-15T16:30:31;11.40;99.90
31735;DHT22;18313;48.518;9.124;2022-11-15T16:33:16;11.30;99.90
31735;DHT22;18313;48.518;9.124;2022-11-15T16:36:06;11.40;99.90
31735;DHT22;18313;48.518;9.124;2022-11-15T16:38:52;11.40;99.90
31735;DHT22;18313;48.518;9.124;2022-11-15T16:41:38;11.50;99.90
31735;DHT22;18313;48.518;9.124;2022-11-15T16:44:23;11.50;99.90
31735;DHT22;18313;48.518;9.124;2022-11-15T16:47:18;11.50;99.90
31735;DHT22;18313;48.518;9.124;2022-11-15T16:50:04;11.40;99.90
31735;DHT22;18313;48.518;9.124;2022-11-15T16:52:54;11.40;99.90
31735;DHT22;18313;48.518;9.124;2022-11-15T16:55:40;11.40;99.90
31735;DHT22;18313;48.518;9.124;2022-11-15T16:58:25;11.40;99.90
31735;DHT22;18313;48.518;9.124;2022-11-15T17:01:21;11.40;99.90
31735;DHT22;18313;48.518;9.124;2022-11-15T17:04:09;11.40;99.90
31735;DHT22;18313;48.518;9.124;2022-11-15T17:06:57;11.40;99.90
31735;DHT22;18313;48.518;9.124;2022-11-15T17:09:43;11.40;99.90
31735;DHT22;18313;48.518;9.124;2022-11-15T17:12:29;11.30;99.90
31735;DHT22;18313;48.518;9.124;2022-11-15T17:15:15;11.30;99.90
31735;DHT22;18313;48.518;9.124;2022-11-15T17:18:01;11.30;99.90
31735;DHT22;18313;48.518;9.124;2022-11-15T17:20:46;11.30;99.90
31735;DHT22;18313;48.518;9.124;2022-11-15T17:23:32;11.20;99.90
31735;DHT22;18313;48.518;9.124;2022-11-15T17:26:18;11.20;99.90
31735;DHT22;18313;48.518;9.124;2022-11-15T17:29:24;11.10;99.90
31735;DHT22;18313;48.518;9.124;2022-11-15T17:32:09;11.30;99.90
31735;DHT22;18313;48.518;9.124;2022-11-15T17:34:55;11.50;99.90
31735;DHT22;18313;48.518;9.124;2022-11-15T17:37:40;11.40;99.90
31735;DHT22;18313;48.518;9.124;2022-11-15T17:40:26;11.40;99.90
31735;DHT22;18313;48.518;9.124;2022-11-15T17:43:11;11.40;99.90
31735;DHT22;18313;48.518;9.124;2022-11-15T17:45:58;11.40;99.90
31735;DHT22;18313;48.518;9.124;2022-11-15T17:48:44;11.30;99.90
31735;DHT22;18313;48.518;9.124;2022-11-15T17:51:30;11.20;99.90
31735;DHT22;18313;48.518;9.124;2022-11-15T17:54:15;11.40;99.90
31735;DHT22;18313;48.518;9.124;2022-11-15T17:57:01;11.50;99.90
31735;DHT22;18313;48.518;9.124;2022-11-15T17:59:47;11.60;99.90
31735;DHT22;18313;48.518;9.124;2022-11-15T18:02:32;11.50;99.90
31735;DHT22;18313;48.518;9.124;2022-11-15T18:05:18;11.40;99.90
31735;DHT22;18313;48.518;9.124;2022-11-15T18:08:04;11.40;99.90
31735;DHT22;18313;48.518;9.124;2022-11-15T18:10:50;11.30;99.90
31735;DHT22;18313;48.518;9.124;2022-11-15T18:13:36;11.20;99.90
31735;DHT22;18313;48.518;9.124;2022-11-15T18:16:24;11.10;99.90
31735;DHT22;18313;48.518;9.124;2022-11-15T18:19:10;11.20;99.90
31735;DHT22;18313;48.518;9.124;2022-11-15T18:21:59;11.20;99.90
31735;DHT22;18313;48.518;9.124;2022-11-15T18:24:46;11.20;99.90
31735;DHT22;18313;48.518;9.124;2022-11-15T18:27:32;11.30;99.90
31735;DHT22;18313;48.518;9.124;2022-11-15T18:30:18;11.30;99.90
31735;DHT22;18313;48.518;9.124;2022-11-15T18:33:04;11.20;99.90
31735;DHT22;18313;48.518;9.124;2022-11-15T18:35:49;11.20;99.90
31735;DHT22;18313;48.518;9.124;2022-11-15T18:38:35;11.10;99.90
31735;DHT22;18313;48.518;9.124;2022-11-15T18:41:20;11.00;99.90
31735;DHT22;18313;48.518;9.124;2022-11-15T18:44:09;11.00;99.90
31735;DHT22;18313;48.518;9.124;2022-11-15T18:46:55;11.00;99.90
31735;DHT22;18313;48.518;9.124;2022-11-15T18:49:41;11.00;99.90
31735;DHT22;18313;48.518;9.124;2022-11-15T18:52:26;11.00;99.90
31735;DHT22;18313;48.518;9.124;2022-11-15T18:55:12;11.20;99.90
31735;DHT22;18313;48.518;9.124;2022-11-15T18:57:58;11.20;99.90
31735;DHT22;18313;48.518;9.124;2022-11-15T19:00:44;11.30;99.90
31735;DHT22;18313;48.518;9.124;2022-11-15T19:03:34;11.40;99.90
31735;DHT22;18313;48.518;9.124;2022-11-15T19:06:22;11.30;99.90
31735;DHT22;18313;48.518;9.124;2022-11-15T19:09:11;11.40;99.90
31735;DHT22;18313;48.518;9.124;2022-11-15T19:11:59;11.50;99.90
31735;DHT22;18313;48.518;9.124;2022-11-15T19:14:45;11.50;99.90
31735;DHT22;18313;48.518;9.124;2022-11-15T19:17:30;11.30;99.90
31735;DHT22;18313;48.518;9.124;2022-11-15T19:20:15;11.30;99.90
31735;DHT22;18313;48.518;9.124;2022-11-15T19:23:01;11.10;99.90
31735;DHT22;18313;48.518;9.124;2022-11-15T19:25:58;11.10;99.90